createdAt,value
2023-02-27T00:01:18.665Z,82.87
2023-02-27T00:04:21.816Z,83.32
2023-02-27T00:07:26.267Z,82.97
2023-02-27T00:10:29.196Z,83.15
2023-02-27T00:13:31.774Z,83.71
2023-02-27T00:16:34.794Z,84.07
2023-02-27T00:19:37.971Z,84.84
2023-02-27T00:22:42.046Z,85.33
2023-02-27T00:25:44.701Z,85.63
2023-02-27T00:28:47.874Z,85.86
2023-02-27T00:31:51.057Z,85.88
2023-02-27T00:34:54.142Z,85.69
2023-02-27T00:37:56.805Z,85.95
2023-02-27T00:40:59.865Z,85.95
2023-02-27T00:44:02.672Z,85.10
2023-02-27T00:47:05.542Z,84.81
2023-02-27T00:50:10.282Z,85.03
2023-02-27T00:53:13.495Z,85.41
2023-02-27T00:56:16.172Z,85.29
2023-02-27T00:59:19.598Z,85.37
2023-02-27T01:02:22.740Z,85.21
2023-02-27T01:05:25.811Z,85.90
2023-02-27T01:08:28.567Z,86.31
2023-02-27T01:11:32.125Z,86.49
2023-02-27T01:14:36.467Z,85.89
2023-02-27T01:17:39.476Z,85.77
2023-02-27T01:20:42.155Z,85.72
2023-02-27T01:23:48.142Z,85.83
2023-02-27T01:26:54.649Z,85.71
2023-02-27T01:29:57.669Z,85.95
2023-02-27T01:33:00.374Z,85.95
2023-02-27T01:36:03.597Z,85.71
2023-02-27T01:39:06.409Z,85.85
2023-02-27T01:42:35.817Z,85.69
2023-02-27T01:45:42.219Z,85.57
2023-02-27T01:48:45.436Z,85.78
2023-02-27T01:52:02.069Z,85.82
2023-02-27T01:55:08.607Z,85.78
2023-02-27T01:58:13.757Z,85.91
2023-02-27T02:01:17.408Z,86.13
2023-02-27T02:04:29.842Z,85.96
2023-02-27T02:07:34.965Z,85.91
2023-02-27T02:10:39.903Z,85.97
2023-02-27T02:13:43.199Z,86.17
2023-02-27T02:16:54.745Z,85.81
2023-02-27T02:20:22.590Z,86.10
2023-02-27T02:23:56.019Z,85.95
2023-02-27T02:27:05.085Z,86.10
2023-02-27T02:30:32.831Z,86.09
2023-02-27T02:34:10.529Z,85.96
2023-02-27T02:37:34.608Z,86.13
2023-02-27T02:40:59.627Z,86.08
2023-02-27T02:44:28.993Z,86.18
2023-02-27T02:47:59.342Z,86.49
2023-02-27T02:52:00.806Z,86.60
2023-02-27T02:55:18.702Z,86.89
2023-02-27T02:58:21.324Z,87.16
2023-02-27T03:01:31.494Z,87.61
2023-02-27T03:04:44.512Z,87.76
2023-02-27T03:08:16.099Z,88.24
2023-02-27T03:11:20.272Z,88.23
2023-02-27T03:14:42.041Z,88.34
2023-02-27T03:18:01.564Z,88.62
2023-02-27T03:21:10.604Z,88.53
2023-02-27T03:24:20.984Z,88.51
2023-02-27T03:27:30.377Z,88.86
2023-02-27T03:31:01.028Z,88.79
2023-02-27T03:34:30.417Z,88.75
2023-02-27T03:37:43.737Z,88.82
2023-02-27T03:40:54.095Z,88.89
2023-02-27T03:44:11.314Z,89.31
2023-02-27T03:47:14.321Z,89.45
2023-02-27T03:50:17.479Z,89.45
2023-02-27T03:53:41.641Z,89.31
2023-02-27T03:57:06.039Z,89.61
2023-02-27T04:00:13.568Z,89.65
2023-02-27T04:03:16.392Z,89.10
2023-02-27T04:06:37.889Z,89.30
2023-02-27T04:10:07.956Z,89.25
2023-02-27T04:13:25.887Z,89.29
2023-02-27T04:16:42.653Z,89.65
2023-02-27T04:20:20.692Z,89.44
2023-02-27T04:23:50.958Z,89.94
2023-02-27T04:27:23.535Z,90.07
2023-02-27T04:30:55.666Z,90.51
2023-02-27T04:34:07.269Z,90.85
2023-02-27T04:37:22.573Z,90.97
2023-02-27T04:40:42.508Z,90.83
2023-02-27T04:43:47.731Z,90.47
2023-02-27T04:46:52.660Z,89.88
2023-02-27T04:50:00.986Z,89.49
2023-02-27T04:53:47.508Z,89.61
2023-02-27T04:56:54.790Z,88.43
2023-02-27T05:00:01.516Z,88.38
2023-02-27T05:03:16.694Z,88.10
2023-02-27T05:06:25.789Z,88.20
2023-02-27T05:09:40.974Z,87.87
2023-02-27T05:13:17.241Z,87.75
2023-02-27T05:16:41.874Z,87.61
2023-02-27T05:19:46.895Z,87.34
2023-02-27T05:22:54.560Z,87.27
2023-02-27T05:26:04.367Z,87.25
2023-02-27T05:29:27.961Z,87.14
2023-02-27T05:32:51.174Z,86.88
2023-02-27T05:36:15.591Z,86.61
2023-02-27T05:39:22.781Z,86.37
2023-02-27T05:42:37.049Z,86.62
2023-02-27T05:45:43.601Z,86.70
2023-02-27T05:49:01.595Z,86.62
2023-02-27T05:52:10.650Z,86.83
2023-02-27T05:55:22.332Z,86.49
2023-02-27T05:58:38.928Z,86.39
2023-02-27T06:01:41.660Z,86.03
2023-02-27T06:04:44.720Z,85.63
2023-02-27T06:07:47.345Z,85.38
2023-02-27T06:10:50.355Z,84.88
2023-02-27T06:13:53.070Z,84.66
2023-02-27T06:16:56.086Z,84.34
2023-02-27T06:19:59.100Z,83.54
2023-02-27T06:23:02.297Z,82.96
2023-02-27T06:26:05.085Z,82.92
2023-02-27T06:29:08.098Z,82.29
2023-02-27T06:32:10.783Z,82.41
2023-02-27T06:35:13.966Z,82.26
2023-02-27T06:38:16.754Z,82.15
2023-02-27T06:41:19.673Z,81.94
2023-02-27T06:44:22.423Z,81.59
2023-02-27T06:47:25.552Z,81.78
2023-02-27T06:50:28.658Z,82.34
2023-02-27T06:53:31.735Z,82.25
2023-02-27T06:56:34.392Z,83.01
2023-02-27T06:59:37.329Z,83.28
2023-02-27T07:02:40.911Z,83.63
2023-02-27T07:05:43.887Z,84.00
2023-02-27T07:09:01.661Z,83.97
2023-02-27T07:12:09.555Z,84.37
2023-02-27T07:15:12.274Z,83.67
2023-02-27T07:18:15.406Z,84.06
2023-02-27T07:21:18.180Z,83.91
2023-02-27T07:24:21.338Z,83.07
2023-02-27T07:27:23.956Z,82.63
2023-02-27T07:30:27.058Z,82.38
2023-02-27T07:33:30.119Z,81.93
2023-02-27T07:36:34.167Z,81.17
2023-02-27T07:39:36.865Z,80.75
2023-02-27T07:42:40.466Z,80.53
2023-02-27T07:45:43.247Z,80.31
2023-02-27T07:48:46.513Z,80.13
2023-02-27T07:51:49.341Z,79.66
2023-02-27T07:54:52.680Z,79.15
2023-02-27T07:57:55.322Z,79.03
2023-02-27T08:00:58.278Z,79.41
2023-02-27T08:04:01.552Z,78.80
2023-02-27T08:07:05.194Z,78.82
2023-02-27T08:10:08.668Z,79.26
2023-02-27T08:13:11.365Z,79.59
2023-02-27T08:16:14.362Z,79.92
2023-02-27T08:19:17.133Z,79.76
2023-02-27T08:22:20.764Z,79.88
2023-02-27T08:25:23.827Z,78.86
2023-02-27T08:28:27.878Z,78.97
2023-02-27T08:31:30.646Z,78.15
2023-02-27T08:34:33.702Z,78.55
2023-02-27T08:37:36.358Z,77.90
2023-02-27T08:40:39.328Z,76.80
2023-02-27T08:43:41.950Z,75.57
2023-02-27T08:46:45.029Z,74.76
2023-02-27T08:49:47.837Z,73.98
2023-02-27T08:52:50.834Z,74.07
2023-02-27T08:55:54.040Z,73.62
2023-02-27T08:58:57.063Z,72.65
2023-02-27T09:02:00.078Z,71.53
2023-02-27T09:05:03.325Z,71.31
2023-02-27T09:08:07.200Z,71.63
2023-02-27T09:11:10.130Z,72.40
2023-02-27T09:14:13.381Z,71.81
2023-02-27T09:17:16.347Z,71.96
2023-02-27T09:20:19.248Z,71.35
2023-02-27T09:23:22.186Z,71.07
2023-02-27T09:26:40.376Z,69.91
2023-02-27T09:29:46.560Z,69.60
2023-02-27T09:32:50.060Z,68.47
2023-02-27T09:35:53.169Z,69.94
2023-02-27T09:38:58.286Z,68.90
2023-02-27T09:42:01.153Z,68.66
2023-02-27T09:45:07.539Z,68.04
2023-02-27T09:48:34.528Z,66.50
2023-02-27T09:51:37.742Z,65.43
2023-02-27T09:54:41.862Z,65.14
2023-02-27T09:58:08.054Z,65.32
2023-02-27T10:01:22.018Z,64.84
2023-02-27T10:04:45.550Z,65.84
2023-02-27T10:08:19.386Z,65.03
2023-02-27T10:11:38.622Z,63.91
2023-02-27T10:15:10.452Z,63.62
2023-02-27T10:18:29.026Z,63.44
2023-02-27T10:21:40.652Z,62.65
2023-02-27T10:24:52.375Z,59.35
2023-02-27T10:28:00.556Z,60.18
2023-02-27T10:31:19.117Z,60.54
2023-02-27T10:34:25.711Z,57.28
2023-02-27T10:37:28.851Z,60.12
2023-02-27T10:40:36.329Z,56.31
2023-02-27T10:43:40.568Z,57.89
2023-02-27T10:46:43.437Z,55.52
2023-02-27T10:49:46.858Z,56.27
2023-02-27T10:52:58.424Z,56.09
2023-02-27T10:56:08.106Z,52.86
2023-02-27T10:59:23.373Z,53.51
2023-02-27T11:02:38.190Z,56.91
2023-02-27T11:05:40.862Z,56.68
2023-02-27T11:08:44.190Z,56.69
2023-02-27T11:11:46.908Z,58.11
2023-02-27T11:14:55.851Z,57.71
2023-02-27T11:18:24.347Z,58.12
2023-02-27T11:21:30.344Z,56.41
2023-02-27T11:24:33.805Z,57.12
2023-02-27T11:27:36.833Z,57.59
2023-02-27T11:30:39.688Z,57.08
2023-02-27T11:33:56.159Z,55.82
2023-02-27T11:37:08.534Z,52.62
2023-02-27T11:40:14.197Z,52.36
2023-02-27T11:43:20.503Z,52.21
2023-02-27T11:46:45.201Z,53.29
2023-02-27T11:49:51.765Z,52.54
2023-02-27T11:53:16.521Z,52.27
2023-02-27T11:56:26.887Z,57.02
2023-02-27T11:59:44.795Z,57.60
2023-02-27T12:03:20.460Z,57.62
2023-02-27T12:06:38.089Z,59.26
2023-02-27T12:09:46.692Z,57.19
2023-02-27T12:12:57.116Z,58.33
2023-02-27T12:16:18.481Z,58.31
2023-02-27T12:19:41.994Z,59.80
2023-02-27T12:22:48.640Z,58.10
2023-02-27T12:25:57.022Z,57.84
2023-02-27T12:29:23.036Z,57.71
2023-02-27T12:32:31.967Z,58.17
2023-02-27T12:35:34.780Z,57.71
2023-02-27T12:38:38.016Z,58.61
2023-02-27T12:41:50.570Z,55.44
2023-02-27T12:45:08.824Z,55.47
2023-02-27T12:48:51.280Z,56.61
2023-02-27T12:52:19.399Z,55.25
2023-02-27T12:55:48.010Z,56.19
2023-02-27T12:59:41.042Z,55.05
2023-02-27T13:03:15.679Z,58.36
2023-02-27T13:06:27.858Z,60.46
2023-02-27T13:09:42.901Z,58.43
2023-02-27T13:12:54.951Z,58.58
2023-02-27T13:16:04.454Z,58.22
2023-02-27T13:19:17.566Z,57.94
2023-02-27T13:22:51.648Z,59.29
2023-02-27T13:25:56.776Z,58.17
2023-02-27T13:29:01.024Z,60.01
2023-02-27T13:32:07.439Z,60.89
2023-02-27T13:35:45.222Z,61.16
2023-02-27T13:38:50.736Z,61.92
2023-02-27T13:41:53.395Z,60.53
2023-02-27T13:45:01.533Z,61.78
2023-02-27T13:48:24.414Z,60.60
2023-02-27T13:51:36.549Z,60.99
2023-02-27T13:54:42.210Z,59.88
2023-02-27T13:57:47.507Z,59.51
2023-02-27T14:00:56.829Z,61.74
2023-02-27T14:04:03.880Z,62.62
2023-02-27T14:07:11.229Z,61.79
2023-02-27T14:10:22.344Z,63.49
2023-02-27T14:13:46.593Z,63.45
2023-02-27T14:16:49.571Z,63.11
2023-02-27T14:19:57.190Z,61.17
2023-02-27T14:23:15.353Z,61.17
2023-02-27T14:26:24.226Z,60.20
2023-02-27T14:29:33.371Z,59.15
2023-02-27T14:32:37.831Z,61.86
2023-02-27T14:35:46.837Z,61.78
2023-02-27T14:38:52.188Z,60.29
2023-02-27T14:42:07.284Z,60.78
2023-02-27T14:45:25.374Z,59.25
2023-02-27T14:48:29.072Z,58.27
2023-02-27T14:51:34.486Z,58.34
2023-02-27T14:54:37.464Z,58.71
2023-02-27T14:57:40.124Z,59.62
2023-02-27T15:01:05.194Z,59.29
2023-02-27T15:04:08.558Z,59.10
2023-02-27T15:07:24.722Z,58.75
2023-02-27T15:10:33.438Z,58.90
2023-02-27T15:13:39.211Z,58.14
2023-02-27T15:16:43.018Z,58.41
2023-02-27T15:19:52.217Z,58.97
2023-02-27T15:22:55.162Z,62.09
2023-02-27T15:25:59.581Z,63.78
2023-02-27T15:29:04.460Z,63.85
2023-02-27T15:32:15.989Z,59.61
2023-02-27T15:35:25.492Z,58.66
2023-02-27T15:38:30.752Z,59.02
2023-02-27T15:41:34.173Z,59.98
2023-02-27T15:44:45.537Z,60.74
2023-02-27T15:47:48.591Z,60.22
2023-02-27T15:50:58.358Z,59.58
2023-02-27T15:54:01.284Z,60.11
2023-02-27T15:57:05.219Z,59.50
2023-02-27T16:00:08.928Z,60.20
2023-02-27T16:03:22.143Z,60.80
2023-02-27T16:06:40.895Z,64.23
2023-02-27T16:09:47.028Z,66.96
2023-02-27T16:12:51.576Z,67.54
2023-02-27T16:16:21.939Z,68.34
2023-02-27T16:19:30.133Z,69.28
2023-02-27T16:22:33.699Z,68.70
2023-02-27T16:25:37.249Z,68.83
2023-02-27T16:29:04.165Z,68.77
2023-02-27T16:32:30.851Z,69.36
2023-02-27T16:35:35.432Z,69.17
2023-02-27T16:38:38.831Z,69.71
2023-02-27T16:41:42.001Z,71.28
2023-02-27T16:44:45.006Z,71.85
2023-02-27T16:47:55.427Z,71.26
2023-02-27T16:50:58.613Z,73.05
2023-02-27T16:54:01.313Z,72.20
2023-02-27T16:57:04.607Z,73.74
2023-02-27T17:00:07.880Z,75.60
2023-02-27T17:03:12.026Z,74.71
2023-02-27T17:06:15.178Z,74.96
2023-02-27T17:09:18.324Z,75.13
2023-02-27T17:12:21.264Z,75.52
2023-02-27T17:15:27.333Z,74.96
2023-02-27T17:18:30.278Z,74.58
2023-02-27T17:21:35.061Z,73.46
2023-02-27T17:24:38.569Z,72.03
2023-02-27T17:27:44.892Z,71.36
2023-02-27T17:30:48.857Z,70.12
2023-02-27T17:33:56.642Z,69.58
2023-02-27T17:36:59.440Z,70.83
2023-02-27T17:40:04.712Z,72.79
2023-02-27T17:43:07.519Z,71.60
2023-02-27T17:46:12.000Z,70.77
2023-02-27T17:49:14.737Z,70.60
2023-02-27T17:52:17.688Z,70.36
2023-02-27T17:55:20.511Z,70.38
2023-02-27T17:58:23.981Z,72.32
2023-02-27T18:01:27.550Z,72.36
2023-02-27T18:04:30.760Z,71.98
2023-02-27T18:07:34.751Z,72.76
2023-02-27T18:10:37.853Z,75.14
2023-02-27T18:13:41.461Z,75.51
2023-02-27T18:16:45.120Z,74.83
2023-02-27T18:19:48.098Z,75.70
2023-02-27T18:22:51.042Z,75.66
2023-02-27T18:25:56.081Z,76.72
2023-02-27T18:29:09.299Z,76.62
2023-02-27T18:32:13.057Z,75.38
2023-02-27T18:35:16.664Z,75.09
2023-02-27T18:38:19.389Z,77.97
2023-02-27T18:41:22.443Z,79.00
2023-02-27T18:44:25.248Z,79.75
2023-02-27T18:47:30.243Z,79.06
2023-02-27T18:50:33.164Z,79.98
2023-02-27T18:53:36.213Z,80.20
2023-02-27T18:56:38.986Z,80.48
2023-02-27T18:59:42.056Z,82.72
2023-02-27T19:02:48.015Z,83.93
2023-02-27T19:05:51.288Z,82.50
2023-02-27T19:08:54.641Z,83.73
2023-02-27T19:11:58.355Z,82.71
2023-02-27T19:15:01.898Z,83.20
2023-02-27T19:18:06.917Z,83.21
2023-02-27T19:21:09.742Z,83.87
2023-02-27T19:24:13.931Z,83.07
2023-02-27T19:27:17.315Z,84.36
2023-02-27T19:30:20.653Z,85.48
2023-02-27T19:33:23.490Z,85.88
2023-02-27T19:36:28.934Z,85.95
2023-02-27T19:39:31.820Z,85.60
2023-02-27T19:42:34.793Z,85.32
2023-02-27T19:45:41.253Z,85.29
2023-02-27T19:48:45.467Z,85.04
2023-02-27T19:51:48.805Z,83.70
2023-02-27T19:54:51.869Z,84.43
2023-02-27T19:57:54.728Z,83.86
2023-02-27T20:00:57.854Z,84.59
2023-02-27T20:04:01.985Z,84.14
2023-02-27T20:07:04.808Z,83.73
2023-02-27T20:10:08.534Z,83.48
2023-02-27T20:13:11.406Z,84.59
2023-02-27T20:16:17.689Z,84.56
2023-02-27T20:19:22.595Z,85.13
2023-02-27T20:22:26.096Z,86.08
2023-02-27T20:25:30.064Z,84.01
2023-02-27T20:28:33.053Z,84.46
2023-02-27T20:31:38.038Z,84.51
2023-02-27T20:34:41.261Z,83.91
2023-02-27T20:37:43.952Z,83.14
2023-02-27T20:40:46.933Z,83.47
2023-02-27T20:43:50.174Z,84.39
2023-02-27T20:46:53.498Z,84.23
2023-02-27T20:49:56.210Z,83.66
2023-02-27T20:52:59.250Z,82.54
2023-02-27T20:56:02.041Z,83.78
2023-02-27T20:59:06.936Z,83.35
2023-02-27T21:02:10.713Z,82.86
2023-02-27T21:05:13.930Z,83.05
2023-02-27T21:08:17.329Z,81.97
2023-02-27T21:11:29.493Z,82.02
2023-02-27T21:14:33.142Z,81.34
2023-02-27T21:17:36.200Z,81.47
2023-02-27T21:20:45.037Z,81.81
2023-02-27T21:23:47.993Z,81.54
2023-02-27T21:26:50.757Z,81.05
2023-02-27T21:29:53.850Z,80.81
2023-02-27T21:32:57.839Z,79.55
2023-02-27T21:36:00.905Z,77.51
2023-02-27T21:39:06.743Z,76.83
2023-02-27T21:42:09.912Z,76.96
2023-02-27T21:45:12.648Z,76.43
2023-02-27T21:48:16.179Z,76.23
2023-02-27T21:51:32.950Z,76.63
2023-02-27T21:54:40.011Z,76.16
2023-02-27T21:57:42.655Z,76.28
2023-02-27T22:00:45.656Z,76.00
2023-02-27T22:03:52.497Z,76.11
2023-02-27T22:06:55.186Z,76.55
2023-02-27T22:09:58.151Z,77.16
2023-02-27T22:13:00.741Z,77.16
2023-02-27T22:16:09.487Z,77.14
2023-02-27T22:19:19.626Z,77.64
2023-02-27T22:22:22.965Z,77.14
2023-02-27T22:25:25.664Z,77.00
2023-02-27T22:28:31.106Z,77.70
2023-02-27T22:31:36.968Z,77.00
2023-02-27T22:34:40.349Z,76.70
2023-02-27T22:37:43.385Z,77.52
2023-02-27T22:40:46.364Z,78.28
2023-02-27T22:43:49.455Z,78.78
2023-02-27T22:46:53.106Z,79.11
2023-02-27T22:49:55.853Z,79.61
2023-02-27T22:52:58.941Z,80.56
2023-02-27T22:56:01.615Z,80.42
2023-02-27T22:59:05.936Z,81.16
2023-02-27T23:02:10.237Z,81.68
2023-02-27T23:05:13.772Z,82.57
2023-02-27T23:08:16.852Z,84.18
2023-02-27T23:11:20.908Z,87.66
2023-02-27T23:14:24.029Z,90.92
2023-02-27T23:17:27.065Z,93.80
2023-02-27T23:20:29.797Z,99.79
2023-02-27T23:23:32.790Z,100.00
2023-02-27T23:26:37.599Z,100.00
2023-02-27T23:29:40.670Z,100.00
2023-02-27T23:32:47.248Z,100.00
2023-02-27T23:35:50.722Z,100.00
2023-02-27T23:38:53.669Z,100.00
2023-02-27T23:41:56.598Z,100.00
2023-02-27T23:45:11.658Z,100.00
2023-02-27T23:48:14.721Z,100.00
2023-02-27T23:51:17.420Z,100.00
2023-02-27T23:54:20.444Z,100.00
2023-02-27T23:57:23.186Z,100.00
